< < Back
Terminal Aerodrome Forecast


Current Version              Previous Versions:   1  2  3  4  5  6  7  8  9  

Terminal Aerodrome Forecast

093
FTUS42 KFFC 282320
TAFMCN
TAF
KMCN 282320Z 2900/2924 00000KT P6SM SKC
     FM291600 21007KT P6SM SCT250=

Latest METAR

893
SAUS80 KWBC 290500 RRA
MTRMCN
METAR KMCN 290453Z AUTO 00000KT 10SM CLR M02/M02 A3031 RMK AO2 SLP264
T10171022 401061039 TSNO


USA.gov is the U.S. government's official web portal to all federal, state and local government web resources and services.